sensor_id;sensor_type;location;lat;lon;timestamp;P1;durP1;ratioP1;P2;durP2;ratioP2
17197;SDS011;8715;51.010;6.812;2022-11-25T00:00:50;307.50;;;292.45;;
17197;SDS011;8715;51.010;6.812;2022-11-25T00:03:15;321.47;;;305.97;;
17197;SDS011;8715;51.010;6.812;2022-11-25T00:05:41;326.57;;;310.13;;
17197;SDS011;8715;51.010;6.812;2022-11-25T00:08:06;319.88;;;304.70;;
17197;SDS011;8715;51.010;6.812;2022-11-25T00:10:32;313.13;;;297.95;;
17197;SDS011;8715;51.010;6.812;2022-11-25T00:12:57;309.47;;;294.70;;
17197;SDS011;8715;51.010;6.812;2022-11-25T00:15:22;316.47;;;301.67;;
17197;SDS011;8715;51.010;6.812;2022-11-25T00:17:47;313.27;;;297.67;;
17197;SDS011;8715;51.010;6.812;2022-11-25T00:20:13;322.00;;;304.37;;
17197;SDS011;8715;51.010;6.812;2022-11-25T00:22:38;314.27;;;298.98;;
17197;SDS011;8715;51.010;6.812;2022-11-25T00:25:04;312.93;;;296.70;;
17197;SDS011;8715;51.010;6.812;2022-11-25T00:27:29;318.23;;;303.05;;
17197;SDS011;8715;51.010;6.812;2022-11-25T00:29:55;310.63;;;294.50;;
17197;SDS011;8715;51.010;6.812;2022-11-25T00:32:20;306.83;;;291.80;;
17197;SDS011;8715;51.010;6.812;2022-11-25T00:34:46;313.97;;;299.07;;
17197;SDS011;8715;51.010;6.812;2022-11-25T00:37:11;313.63;;;298.63;;
17197;SDS011;8715;51.010;6.812;2022-11-25T00:39:37;319.58;;;303.48;;
17197;SDS011;8715;51.010;6.812;2022-11-25T00:42:02;312.65;;;297.73;;
17197;SDS011;8715;51.010;6.812;2022-11-25T00:44:46;316.58;;;299.92;;
17197;SDS011;8715;51.010;6.812;2022-11-25T00:47:12;314.87;;;298.43;;
17197;SDS011;8715;51.010;6.812;2022-11-25T00:49:50;313.77;;;297.83;;
17197;SDS011;8715;51.010;6.812;2022-11-25T00:52:18;314.40;;;299.30;;
17197;SDS011;8715;51.010;6.812;2022-11-25T00:54:47;301.90;;;287.15;;
17197;SDS011;8715;51.010;6.812;2022-11-25T00:57:13;310.45;;;295.45;;
17197;SDS011;8715;51.010;6.812;2022-11-25T00:59:40;316.88;;;301.17;;
17197;SDS011;8715;51.010;6.812;2022-11-25T01:02:05;312.67;;;297.50;;
17197;SDS011;8715;51.010;6.812;2022-11-25T01:04:31;309.02;;;294.58;;
17197;SDS011;8715;51.010;6.812;2022-11-25T01:06:57;304.20;;;289.45;;
17197;SDS011;8715;51.010;6.812;2022-11-25T01:09:24;301.98;;;287.90;;
17197;SDS011;8715;51.010;6.812;2022-11-25T01:11:49;308.30;;;293.45;;
17197;SDS011;8715;51.010;6.812;2022-11-25T01:14:15;318.75;;;302.90;;
17197;SDS011;8715;51.010;6.812;2022-11-25T01:16:41;321.63;;;305.85;;
17197;SDS011;8715;51.010;6.812;2022-11-25T01:19:06;329.07;;;312.73;;
17197;SDS011;8715;51.010;6.812;2022-11-25T01:21:32;316.70;;;301.45;;
17197;SDS011;8715;51.010;6.812;2022-11-25T01:23:58;323.40;;;308.73;;
17197;SDS011;8715;51.010;6.812;2022-11-25T01:26:25;320.00;;;304.75;;
17197;SDS011;8715;51.010;6.812;2022-11-25T01:28:54;343.80;;;326.80;;
17197;SDS011;8715;51.010;6.812;2022-11-25T01:31:22;323.35;;;307.48;;
17197;SDS011;8715;51.010;6.812;2022-11-25T01:33:51;332.15;;;316.52;;
17197;SDS011;8715;51.010;6.812;2022-11-25T01:36:18;327.80;;;312.13;;
17197;SDS011;8715;51.010;6.812;2022-11-25T01:38:44;328.10;;;312.80;;
17197;SDS011;8715;51.010;6.812;2022-11-25T01:41:13;341.05;;;325.00;;
17197;SDS011;8715;51.010;6.812;2022-11-25T01:43:38;329.50;;;313.50;;
17197;SDS011;8715;51.010;6.812;2022-11-25T01:46:25;338.10;;;321.98;;
17197;SDS011;8715;51.010;6.812;2022-11-25T01:51:26;324.40;;;307.85;;
17197;SDS011;8715;51.010;6.812;2022-11-25T01:53:56;324.48;;;307.60;;
17197;SDS011;8715;51.010;6.812;2022-11-25T01:56:24;335.42;;;318.70;;
17197;SDS011;8715;51.010;6.812;2022-11-25T01:58:50;340.02;;;323.63;;
17197;SDS011;8715;51.010;6.812;2022-11-25T02:01:15;330.08;;;314.33;;
17197;SDS011;8715;51.010;6.812;2022-11-25T02:03:42;348.00;;;332.10;;
17197;SDS011;8715;51.010;6.812;2022-11-25T02:08:54;336.13;;;320.30;;
17197;SDS011;8715;51.010;6.812;2022-11-25T02:11:23;342.30;;;326.60;;
17197;SDS011;8715;51.010;6.812;2022-11-25T02:13:50;345.67;;;329.38;;
17197;SDS011;8715;51.010;6.812;2022-11-25T02:16:16;344.58;;;328.27;;
17197;SDS011;8715;51.010;6.812;2022-11-25T02:18:41;353.93;;;337.37;;
17197;SDS011;8715;51.010;6.812;2022-11-25T02:21:07;340.77;;;325.08;;
17197;SDS011;8715;51.010;6.812;2022-11-25T02:26:04;324.58;;;309.73;;
17197;SDS011;8715;51.010;6.812;2022-11-25T02:28:31;337.05;;;321.30;;
17197;SDS011;8715;51.010;6.812;2022-11-25T02:30:57;336.08;;;320.77;;
17197;SDS011;8715;51.010;6.812;2022-11-25T02:33:22;352.52;;;336.42;;
17197;SDS011;8715;51.010;6.812;2022-11-25T02:35:49;343.67;;;326.88;;
17197;SDS011;8715;51.010;6.812;2022-11-25T02:38:19;341.05;;;324.75;;
17197;SDS011;8715;51.010;6.812;2022-11-25T02:43:19;308.83;;;294.15;;
17197;SDS011;8715;51.010;6.812;2022-11-25T02:45:50;327.95;;;312.23;;
17197;SDS011;8715;51.010;6.812;2022-11-25T02:48:17;336.85;;;321.10;;
17197;SDS011;8715;51.010;6.812;2022-11-25T02:50:42;349.70;;;333.08;;
17197;SDS011;8715;51.010;6.812;2022-11-25T02:53:08;345.63;;;329.38;;
17197;SDS011;8715;51.010;6.812;2022-11-25T02:55:33;341.00;;;326.03;;
17197;SDS011;8715;51.010;6.812;2022-11-25T02:57:59;341.60;;;325.80;;
17197;SDS011;8715;51.010;6.812;2022-11-25T03:00:24;357.45;;;341.55;;
17197;SDS011;8715;51.010;6.812;2022-11-25T03:02:50;352.58;;;336.13;;
17197;SDS011;8715;51.010;6.812;2022-11-25T03:05:18;348.77;;;332.73;;
17197;SDS011;8715;51.010;6.812;2022-11-25T03:07:43;351.55;;;333.83;;
17197;SDS011;8715;51.010;6.812;2022-11-25T03:10:09;361.57;;;342.50;;
17197;SDS011;8715;51.010;6.812;2022-11-25T03:12:34;345.52;;;329.00;;
17197;SDS011;8715;51.010;6.812;2022-11-25T03:14:59;360.87;;;344.77;;
17197;SDS011;8715;51.010;6.812;2022-11-25T03:17:25;358.63;;;342.33;;
17197;SDS011;8715;51.010;6.812;2022-11-25T03:19:50;353.92;;;337.13;;
17197;SDS011;8715;51.010;6.812;2022-11-25T03:22:15;344.30;;;328.50;;
17197;SDS011;8715;51.010;6.812;2022-11-25T03:24:41;347.95;;;331.95;;
17197;SDS011;8715;51.010;6.812;2022-11-25T03:27:07;346.08;;;329.60;;
17197;SDS011;8715;51.010;6.812;2022-11-25T03:29:32;350.87;;;335.50;;
17197;SDS011;8715;51.010;6.812;2022-11-25T03:31:57;369.00;;;352.53;;
17197;SDS011;8715;51.010;6.812;2022-11-25T03:34:22;347.57;;;330.97;;
17197;SDS011;8715;51.010;6.812;2022-11-25T03:36:48;373.60;;;355.60;;
17197;SDS011;8715;51.010;6.812;2022-11-25T03:39:13;335.15;;;319.52;;
17197;SDS011;8715;51.010;6.812;2022-11-25T03:41:39;353.40;;;337.07;;
17197;SDS011;8715;51.010;6.812;2022-11-25T03:44:04;346.85;;;330.75;;
17197;SDS011;8715;51.010;6.812;2022-11-25T03:46:30;351.75;;;335.50;;
17197;SDS011;8715;51.010;6.812;2022-11-25T03:48:55;363.53;;;347.07;;
17197;SDS011;8715;51.010;6.812;2022-11-25T03:51:20;348.77;;;332.73;;
17197;SDS011;8715;51.010;6.812;2022-11-25T03:53:45;340.00;;;325.57;;
17197;SDS011;8715;51.010;6.812;2022-11-25T03:56:11;346.67;;;330.67;;
17197;SDS011;8715;51.010;6.812;2022-11-25T03:58:36;353.17;;;336.97;;
17197;SDS011;8715;51.010;6.812;2022-11-25T04:01:02;361.07;;;344.40;;
17197;SDS011;8715;51.010;6.812;2022-11-25T04:03:27;361.20;;;345.13;;
17197;SDS011;8715;51.010;6.812;2022-11-25T04:05:53;343.13;;;327.02;;
17197;SDS011;8715;51.010;6.812;2022-11-25T04:08:19;372.83;;;355.60;;
17197;SDS011;8715;51.010;6.812;2022-11-25T04:10:45;375.10;;;357.48;;
17197;SDS011;8715;51.010;6.812;2022-11-25T04:13:10;364.17;;;346.07;;
17197;SDS011;8715;51.010;6.812;2022-11-25T04:15:36;359.75;;;342.95;;
17197;SDS011;8715;51.010;6.812;2022-11-25T04:18:01;366.15;;;349.60;;
17197;SDS011;8715;51.010;6.812;2022-11-25T04:20:27;369.40;;;353.00;;
17197;SDS011;8715;51.010;6.812;2022-11-25T04:22:52;361.20;;;344.58;;
17197;SDS011;8715;51.010;6.812;2022-11-25T04:25:18;378.17;;;360.83;;
17197;SDS011;8715;51.010;6.812;2022-11-25T04:27:43;364.33;;;347.40;;
17197;SDS011;8715;51.010;6.812;2022-11-25T04:30:09;379.73;;;360.13;;
17197;SDS011;8715;51.010;6.812;2022-11-25T04:32:35;359.10;;;342.58;;
17197;SDS011;8715;51.010;6.812;2022-11-25T04:35:02;379.45;;;361.52;;
17197;SDS011;8715;51.010;6.812;2022-11-25T04:37:27;374.42;;;357.02;;
17197;SDS011;8715;51.010;6.812;2022-11-25T04:39:52;385.33;;;367.73;;
17197;SDS011;8715;51.010;6.812;2022-11-25T04:42:18;373.17;;;355.90;;
17197;SDS011;8715;51.010;6.812;2022-11-25T04:45:00;381.60;;;363.90;;
17197;SDS011;8715;51.010;6.812;2022-11-25T04:47:28;362.63;;;346.23;;
17197;SDS011;8715;51.010;6.812;2022-11-25T04:49:54;377.83;;;360.45;;
17197;SDS011;8715;51.010;6.812;2022-11-25T04:52:20;394.25;;;376.02;;
17197;SDS011;8715;51.010;6.812;2022-11-25T04:54:45;373.10;;;356.20;;
17197;SDS011;8715;51.010;6.812;2022-11-25T04:57:13;370.77;;;352.00;;
17197;SDS011;8715;51.010;6.812;2022-11-25T04:59:40;368.30;;;350.98;;
17197;SDS011;8715;51.010;6.812;2022-11-25T05:02:11;358.83;;;341.80;;
17197;SDS011;8715;51.010;6.812;2022-11-25T05:04:47;371.45;;;353.92;;
17197;SDS011;8715;51.010;6.812;2022-11-25T05:07:15;372.40;;;355.13;;
17197;SDS011;8715;51.010;6.812;2022-11-25T05:09:41;381.88;;;364.30;;
17197;SDS011;8715;51.010;6.812;2022-11-25T05:12:07;360.77;;;344.83;;
17197;SDS011;8715;51.010;6.812;2022-11-25T05:14:38;375.63;;;357.40;;
17197;SDS011;8715;51.010;6.812;2022-11-25T05:17:04;388.65;;;370.58;;
17197;SDS011;8715;51.010;6.812;2022-11-25T05:19:30;360.05;;;343.20;;
17197;SDS011;8715;51.010;6.812;2022-11-25T05:21:55;369.13;;;352.97;;
17197;SDS011;8715;51.010;6.812;2022-11-25T05:24:20;364.37;;;348.00;;
17197;SDS011;8715;51.010;6.812;2022-11-25T05:26:46;362.27;;;345.48;;
17197;SDS011;8715;51.010;6.812;2022-11-25T05:29:11;401.75;;;382.50;;
17197;SDS011;8715;51.010;6.812;2022-11-25T05:31:37;370.17;;;353.02;;
17197;SDS011;8715;51.010;6.812;2022-11-25T05:34:02;373.92;;;355.38;;
17197;SDS011;8715;51.010;6.812;2022-11-25T05:36:28;357.40;;;341.13;;
17197;SDS011;8715;51.010;6.812;2022-11-25T05:38:56;375.10;;;357.40;;
17197;SDS011;8715;51.010;6.812;2022-11-25T05:41:22;389.83;;;372.52;;
17197;SDS011;8715;51.010;6.812;2022-11-25T05:43:47;365.70;;;349.00;;
17197;SDS011;8715;51.010;6.812;2022-11-25T05:46:13;350.92;;;334.92;;
17197;SDS011;8715;51.010;6.812;2022-11-25T05:48:39;377.15;;;359.17;;
17197;SDS011;8715;51.010;6.812;2022-11-25T05:51:04;358.20;;;341.40;;
17197;SDS011;8715;51.010;6.812;2022-11-25T05:53:30;368.95;;;352.58;;
17197;SDS011;8715;51.010;6.812;2022-11-25T05:55:56;382.83;;;365.65;;
17197;SDS011;8715;51.010;6.812;2022-11-25T05:58:23;370.83;;;354.13;;
17197;SDS011;8715;51.010;6.812;2022-11-25T06:00:48;360.02;;;343.33;;
17197;SDS011;8715;51.010;6.812;2022-11-25T06:03:14;369.30;;;352.08;;
17197;SDS011;8715;51.010;6.812;2022-11-25T06:05:39;372.93;;;355.73;;
17197;SDS011;8715;51.010;6.812;2022-11-25T06:08:05;361.15;;;343.58;;
17197;SDS011;8715;51.010;6.812;2022-11-25T06:10:31;344.48;;;328.63;;
17197;SDS011;8715;51.010;6.812;2022-11-25T06:12:56;368.20;;;351.10;;
17197;SDS011;8715;51.010;6.812;2022-11-25T06:15:21;406.58;;;387.92;;
17197;SDS011;8715;51.010;6.812;2022-11-25T06:17:47;366.23;;;349.63;;
17197;SDS011;8715;51.010;6.812;2022-11-25T06:20:12;370.97;;;351.93;;
17197;SDS011;8715;51.010;6.812;2022-11-25T06:22:37;375.27;;;357.90;;
17197;SDS011;8715;51.010;6.812;2022-11-25T06:25:03;363.93;;;345.83;;
17197;SDS011;8715;51.010;6.812;2022-11-25T06:27:29;376.23;;;358.75;;
17197;SDS011;8715;51.010;6.812;2022-11-25T06:29:54;365.60;;;348.05;;
17197;SDS011;8715;51.010;6.812;2022-11-25T06:32:19;356.37;;;339.70;;
17197;SDS011;8715;51.010;6.812;2022-11-25T06:34:45;361.10;;;344.30;;
17197;SDS011;8715;51.010;6.812;2022-11-25T06:37:10;354.40;;;337.50;;
17197;SDS011;8715;51.010;6.812;2022-11-25T06:39:35;372.57;;;353.30;;
17197;SDS011;8715;51.010;6.812;2022-11-25T06:42:01;373.17;;;356.60;;
17197;SDS011;8715;51.010;6.812;2022-11-25T06:44:26;360.20;;;343.63;;
17197;SDS011;8715;51.010;6.812;2022-11-25T06:46:51;361.57;;;344.33;;
17197;SDS011;8715;51.010;6.812;2022-11-25T06:49:17;362.10;;;345.08;;
17197;SDS011;8715;51.010;6.812;2022-11-25T06:51:42;360.90;;;343.70;;
17197;SDS011;8715;51.010;6.812;2022-11-25T06:54:07;365.73;;;348.70;;
17197;SDS011;8715;51.010;6.812;2022-11-25T06:56:34;361.75;;;344.75;;
17197;SDS011;8715;51.010;6.812;2022-11-25T06:59:00;341.92;;;325.20;;
17197;SDS011;8715;51.010;6.812;2022-11-25T07:01:27;397.02;;;378.95;;
17197;SDS011;8715;51.010;6.812;2022-11-25T07:03:55;358.92;;;341.95;;
17197;SDS011;8715;51.010;6.812;2022-11-25T07:06:23;366.45;;;349.45;;
17197;SDS011;8715;51.010;6.812;2022-11-25T07:08:49;359.83;;;343.33;;
17197;SDS011;8715;51.010;6.812;2022-11-25T07:11:16;354.05;;;337.42;;
17197;SDS011;8715;51.010;6.812;2022-11-25T07:13:43;347.08;;;330.33;;
17197;SDS011;8715;51.010;6.812;2022-11-25T07:16:09;349.02;;;331.48;;
17197;SDS011;8715;51.010;6.812;2022-11-25T07:18:36;339.45;;;323.90;;
17197;SDS011;8715;51.010;6.812;2022-11-25T07:21:03;350.98;;;334.25;;
17197;SDS011;8715;51.010;6.812;2022-11-25T07:23:39;337.77;;;321.73;;
17197;SDS011;8715;51.010;6.812;2022-11-25T07:26:06;351.92;;;334.67;;
17197;SDS011;8715;51.010;6.812;2022-11-25T07:28:33;346.27;;;330.33;;
17197;SDS011;8715;51.010;6.812;2022-11-25T07:31:03;340.08;;;323.83;;
17197;SDS011;8715;51.010;6.812;2022-11-25T07:33:29;329.92;;;314.42;;
17197;SDS011;8715;51.010;6.812;2022-11-25T07:35:55;344.27;;;328.27;;
17197;SDS011;8715;51.010;6.812;2022-11-25T07:38:20;333.13;;;316.93;;
17197;SDS011;8715;51.010;6.812;2022-11-25T07:40:45;334.00;;;317.87;;
17197;SDS011;8715;51.010;6.812;2022-11-25T07:43:11;325.57;;;308.53;;
17197;SDS011;8715;51.010;6.812;2022-11-25T07:45:36;330.05;;;313.15;;
17197;SDS011;8715;51.010;6.812;2022-11-25T07:48:01;325.30;;;309.73;;
17197;SDS011;8715;51.010;6.812;2022-11-25T07:50:27;373.60;;;356.50;;
17197;SDS011;8715;51.010;6.812;2022-11-25T07:52:52;329.70;;;313.50;;
17197;SDS011;8715;51.010;6.812;2022-11-25T07:55:17;329.67;;;313.42;;
17197;SDS011;8715;51.010;6.812;2022-11-25T07:57:43;331.65;;;315.05;;
17197;SDS011;8715;51.010;6.812;2022-11-25T08:00:08;329.03;;;311.87;;
17197;SDS011;8715;51.010;6.812;2022-11-25T08:02:34;320.88;;;305.38;;
17197;SDS011;8715;51.010;6.812;2022-11-25T08:04:59;325.13;;;308.80;;
17197;SDS011;8715;51.010;6.812;2022-11-25T08:07:25;319.15;;;303.92;;
17197;SDS011;8715;51.010;6.812;2022-11-25T08:09:51;309.57;;;294.30;;
17197;SDS011;8715;51.010;6.812;2022-11-25T08:12:17;365.10;;;348.48;;
17197;SDS011;8715;51.010;6.812;2022-11-25T08:14:42;315.75;;;300.58;;
17197;SDS011;8715;51.010;6.812;2022-11-25T08:17:07;318.60;;;303.30;;
17197;SDS011;8715;51.010;6.812;2022-11-25T08:19:33;314.80;;;299.55;;
17197;SDS011;8715;51.010;6.812;2022-11-25T08:21:59;328.23;;;313.02;;
17197;SDS011;8715;51.010;6.812;2022-11-25T08:24:25;328.03;;;312.80;;
17197;SDS011;8715;51.010;6.812;2022-11-25T08:26:50;333.27;;;317.27;;
17197;SDS011;8715;51.010;6.812;2022-11-25T08:29:16;335.00;;;319.25;;
17197;SDS011;8715;51.010;6.812;2022-11-25T08:31:42;331.42;;;315.90;;
17197;SDS011;8715;51.010;6.812;2022-11-25T08:34:15;348.48;;;332.45;;
17197;SDS011;8715;51.010;6.812;2022-11-25T08:36:42;344.55;;;328.85;;
17197;SDS011;8715;51.010;6.812;2022-11-25T08:39:08;346.70;;;329.37;;
17197;SDS011;8715;51.010;6.812;2022-11-25T08:41:34;349.45;;;333.13;;
17197;SDS011;8715;51.010;6.812;2022-11-25T08:44:01;336.08;;;320.63;;
17197;SDS011;8715;51.010;6.812;2022-11-25T08:46:29;335.58;;;320.92;;
17197;SDS011;8715;51.010;6.812;2022-11-25T08:48:57;342.67;;;326.90;;
17197;SDS011;8715;51.010;6.812;2022-11-25T08:51:25;354.17;;;338.73;;
17197;SDS011;8715;51.010;6.812;2022-11-25T08:53:52;369.58;;;353.08;;
17197;SDS011;8715;51.010;6.812;2022-11-25T08:56:18;343.77;;;328.52;;
17197;SDS011;8715;51.010;6.812;2022-11-25T08:58:44;380.23;;;363.70;;
17197;SDS011;8715;51.010;6.812;2022-11-25T09:01:10;356.75;;;340.73;;
17197;SDS011;8715;51.010;6.812;2022-11-25T09:03:38;337.60;;;321.85;;
17197;SDS011;8715;51.010;6.812;2022-11-25T09:06:06;354.63;;;338.85;;
17197;SDS011;8715;51.010;6.812;2022-11-25T09:08:32;360.70;;;345.17;;
17197;SDS011;8715;51.010;6.812;2022-11-25T09:10:58;357.23;;;341.77;;
17197;SDS011;8715;51.010;6.812;2022-11-25T09:13:23;376.33;;;359.95;;
17197;SDS011;8715;51.010;6.812;2022-11-25T09:15:49;373.90;;;357.02;;
17197;SDS011;8715;51.010;6.812;2022-11-25T09:18:15;391.48;;;374.75;;
17197;SDS011;8715;51.010;6.812;2022-11-25T09:20:43;370.23;;;354.05;;
17197;SDS011;8715;51.010;6.812;2022-11-25T09:23:08;369.92;;;353.85;;
17197;SDS011;8715;51.010;6.812;2022-11-25T09:25:34;374.67;;;358.65;;
17197;SDS011;8715;51.010;6.812;2022-11-25T09:28:00;382.75;;;365.23;;
17197;SDS011;8715;51.010;6.812;2022-11-25T09:30:25;378.35;;;362.15;;
17197;SDS011;8715;51.010;6.812;2022-11-25T09:32:52;384.13;;;368.10;;
17197;SDS011;8715;51.010;6.812;2022-11-25T09:35:18;404.27;;;386.80;;
17197;SDS011;8715;51.010;6.812;2022-11-25T09:37:44;379.23;;;362.83;;
17197;SDS011;8715;51.010;6.812;2022-11-25T09:40:16;402.92;;;383.90;;
17197;SDS011;8715;51.010;6.812;2022-11-25T09:46:08;403.08;;;386.23;;
17197;SDS011;8715;51.010;6.812;2022-11-25T09:54:40;403.27;;;386.20;;
17197;SDS011;8715;51.010;6.812;2022-11-25T09:57:17;398.73;;;381.85;;
17197;SDS011;8715;51.010;6.812;2022-11-25T10:00:14;410.45;;;391.27;;
17197;SDS011;8715;51.010;6.812;2022-11-25T10:02:44;406.60;;;389.52;;
17197;SDS011;8715;51.010;6.812;2022-11-25T10:05:30;410.05;;;393.15;;
17197;SDS011;8715;51.010;6.812;2022-11-25T10:08:02;419.58;;;402.02;;
17197;SDS011;8715;51.010;6.812;2022-11-25T10:10:43;411.45;;;393.75;;
17197;SDS011;8715;51.010;6.812;2022-11-25T10:13:14;423.77;;;405.15;;
17197;SDS011;8715;51.010;6.812;2022-11-25T10:15:53;428.58;;;409.98;;
17197;SDS011;8715;51.010;6.812;2022-11-25T10:18:24;434.17;;;415.48;;
17197;SDS011;8715;51.010;6.812;2022-11-25T10:20:53;429.85;;;411.17;;
17197;SDS011;8715;51.010;6.812;2022-11-25T10:23:23;437.08;;;417.77;;
17197;SDS011;8715;51.010;6.812;2022-11-25T10:25:56;425.42;;;407.40;;
17197;SDS011;8715;51.010;6.812;2022-11-25T10:28:31;431.85;;;412.90;;
17197;SDS011;8715;51.010;6.812;2022-11-25T10:33:46;456.38;;;436.70;;
17197;SDS011;8715;51.010;6.812;2022-11-25T10:36:19;454.75;;;435.80;;
17197;SDS011;8715;51.010;6.812;2022-11-25T10:41:43;445.48;;;426.13;;
17197;SDS011;8715;51.010;6.812;2022-11-25T10:44:32;461.42;;;442.00;;
17197;SDS011;8715;51.010;6.812;2022-11-25T10:49:44;460.48;;;440.20;;
17197;SDS011;8715;51.010;6.812;2022-11-25T10:52:14;482.75;;;462.65;;
17197;SDS011;8715;51.010;6.812;2022-11-25T10:54:56;460.98;;;441.77;;
17197;SDS011;8715;51.010;6.812;2022-11-25T10:57:24;467.00;;;447.88;;
17197;SDS011;8715;51.010;6.812;2022-11-25T10:59:58;473.33;;;453.60;;
17197;SDS011;8715;51.010;6.812;2022-11-25T11:02:36;461.95;;;442.02;;
17197;SDS011;8715;51.010;6.812;2022-11-25T11:07:38;471.20;;;450.95;;
17197;SDS011;8715;51.010;6.812;2022-11-25T11:18:40;475.73;;;455.23;;
17197;SDS011;8715;51.010;6.812;2022-11-25T11:23:27;444.07;;;424.87;;
17197;SDS011;8715;51.010;6.812;2022-11-25T11:25:57;459.23;;;439.77;;
17197;SDS011;8715;51.010;6.812;2022-11-25T11:31:04;455.00;;;435.27;;
17197;SDS011;8715;51.010;6.812;2022-11-25T11:33:40;466.63;;;446.80;;
17197;SDS011;8715;51.010;6.812;2022-11-25T11:44:39;477.58;;;455.92;;
17197;SDS011;8715;51.010;6.812;2022-11-25T11:53:03;476.83;;;456.52;;
17197;SDS011;8715;51.010;6.812;2022-11-25T11:55:38;495.13;;;473.88;;
17197;SDS011;8715;51.010;6.812;2022-11-25T12:03:47;501.70;;;480.60;;
17197;SDS011;8715;51.010;6.812;2022-11-25T12:06:21;482.80;;;462.67;;
17197;SDS011;8715;51.010;6.812;2022-11-25T12:08:49;512.20;;;490.05;;
17197;SDS011;8715;51.010;6.812;2022-11-25T12:11:21;491.50;;;470.40;;
17197;SDS011;8715;51.010;6.812;2022-11-25T12:13:52;517.20;;;494.98;;
17197;SDS011;8715;51.010;6.812;2022-11-25T12:16:33;493.83;;;472.30;;
17197;SDS011;8715;51.010;6.812;2022-11-25T12:19:08;491.08;;;469.67;;
17197;SDS011;8715;51.010;6.812;2022-11-25T12:32:50;474.10;;;453.88;;
17197;SDS011;8715;51.010;6.812;2022-11-25T12:35:27;484.23;;;463.95;;
17197;SDS011;8715;51.010;6.812;2022-11-25T12:38:49;485.90;;;463.55;;
17197;SDS011;8715;51.010;6.812;2022-11-25T12:43:59;492.75;;;471.63;;
17197;SDS011;8715;51.010;6.812;2022-11-25T12:46:35;542.65;;;519.50;;
17197;SDS011;8715;51.010;6.812;2022-11-25T12:49:06;494.38;;;472.90;;
17197;SDS011;8715;51.010;6.812;2022-11-25T12:55:22;496.95;;;475.48;;
17197;SDS011;8715;51.010;6.812;2022-11-25T13:00:46;481.75;;;460.52;;
17197;SDS011;8715;51.010;6.812;2022-11-25T13:03:38;479.30;;;457.77;;
17197;SDS011;8715;51.010;6.812;2022-11-25T13:16:48;473.67;;;454.33;;
17197;SDS011;8715;51.010;6.812;2022-11-25T13:19:17;472.55;;;453.58;;
17197;SDS011;8715;51.010;6.812;2022-11-25T13:21:59;474.30;;;454.90;;
17197;SDS011;8715;51.010;6.812;2022-11-25T13:24:33;541.05;;;518.45;;
17197;SDS011;8715;51.010;6.812;2022-11-25T13:27:02;477.90;;;457.85;;
17197;SDS011;8715;51.010;6.812;2022-11-25T13:37:45;472.52;;;452.58;;
17197;SDS011;8715;51.010;6.812;2022-11-25T13:42:54;477.27;;;456.65;;
17197;SDS011;8715;51.010;6.812;2022-11-25T13:47:53;476.35;;;456.13;;
17197;SDS011;8715;51.010;6.812;2022-11-25T13:50:23;482.90;;;462.10;;
17197;SDS011;8715;51.010;6.812;2022-11-25T14:02:55;462.23;;;441.60;;
17197;SDS011;8715;51.010;6.812;2022-11-25T14:08:56;454.20;;;434.83;;
17197;SDS011;8715;51.010;6.812;2022-11-25T14:20:13;463.42;;;442.92;;
17197;SDS011;8715;51.010;6.812;2022-11-25T14:25:48;449.13;;;429.75;;
17197;SDS011;8715;51.010;6.812;2022-11-25T14:31:10;467.23;;;446.48;;
17197;SDS011;8715;51.010;6.812;2022-11-25T14:33:50;450.42;;;430.58;;
17197;SDS011;8715;51.010;6.812;2022-11-25T14:36:38;455.00;;;436.23;;
17197;SDS011;8715;51.010;6.812;2022-11-25T14:39:13;463.00;;;442.48;;
17197;SDS011;8715;51.010;6.812;2022-11-25T14:41:48;460.75;;;440.65;;
17197;SDS011;8715;51.010;6.812;2022-11-25T14:44:23;445.20;;;426.60;;
17197;SDS011;8715;51.010;6.812;2022-11-25T14:46:53;452.10;;;431.88;;
17197;SDS011;8715;51.010;6.812;2022-11-25T14:49:20;455.88;;;436.20;;
17197;SDS011;8715;51.010;6.812;2022-11-25T14:51:48;452.33;;;433.25;;
17197;SDS011;8715;51.010;6.812;2022-11-25T14:54:15;448.75;;;429.52;;
17197;SDS011;8715;51.010;6.812;2022-11-25T14:56:45;458.70;;;438.52;;
17197;SDS011;8715;51.010;6.812;2022-11-25T14:59:11;466.23;;;445.75;;
17197;SDS011;8715;51.010;6.812;2022-11-25T15:02:18;455.45;;;436.27;;
17197;SDS011;8715;51.010;6.812;2022-11-25T15:04:30;446.63;;;425.98;;
17197;SDS011;8715;51.010;6.812;2022-11-25T15:06:56;449.45;;;430.60;;
17197;SDS011;8715;51.010;6.812;2022-11-25T15:12:14;441.35;;;422.88;;
17197;SDS011;8715;51.010;6.812;2022-11-25T15:14:41;438.80;;;419.92;;
17197;SDS011;8715;51.010;6.812;2022-11-25T15:17:09;461.90;;;441.65;;
17197;SDS011;8715;51.010;6.812;2022-11-25T15:19:44;434.30;;;415.65;;
17197;SDS011;8715;51.010;6.812;2022-11-25T15:22:10;443.50;;;424.35;;
17197;SDS011;8715;51.010;6.812;2022-11-25T15:24:40;451.85;;;432.10;;
17197;SDS011;8715;51.010;6.812;2022-11-25T15:27:12;438.67;;;419.17;;
17197;SDS011;8715;51.010;6.812;2022-11-25T15:29:39;437.67;;;419.73;;
17197;SDS011;8715;51.010;6.812;2022-11-25T15:32:07;435.73;;;417.02;;
17197;SDS011;8715;51.010;6.812;2022-11-25T15:34:40;446.42;;;427.25;;
17197;SDS011;8715;51.010;6.812;2022-11-25T15:37:08;437.40;;;418.90;;
17197;SDS011;8715;51.010;6.812;2022-11-25T15:39:34;429.38;;;410.70;;
17197;SDS011;8715;51.010;6.812;2022-11-25T15:44:36;424.05;;;406.38;;
17197;SDS011;8715;51.010;6.812;2022-11-25T15:47:05;438.00;;;419.75;;
17197;SDS011;8715;51.010;6.812;2022-11-25T15:49:32;433.33;;;413.90;;
17197;SDS011;8715;51.010;6.812;2022-11-25T15:51:59;428.83;;;409.63;;
17197;SDS011;8715;51.010;6.812;2022-11-25T15:54:32;422.75;;;403.52;;
17197;SDS011;8715;51.010;6.812;2022-11-25T15:57:10;433.23;;;414.45;;
17197;SDS011;8715;51.010;6.812;2022-11-25T16:02:27;396.08;;;377.85;;
17197;SDS011;8715;51.010;6.812;2022-11-25T16:10:33;423.13;;;402.10;;
17197;SDS011;8715;51.010;6.812;2022-11-25T16:18:17;414.27;;;396.23;;
17197;SDS011;8715;51.010;6.812;2022-11-25T16:20:47;418.98;;;400.63;;
17197;SDS011;8715;51.010;6.812;2022-11-25T16:23:13;429.20;;;409.95;;
17197;SDS011;8715;51.010;6.812;2022-11-25T16:25:46;417.38;;;398.42;;
17197;SDS011;8715;51.010;6.812;2022-11-25T16:28:22;414.23;;;396.10;;
17197;SDS011;8715;51.010;6.812;2022-11-25T16:30:48;421.17;;;401.85;;
17197;SDS011;8715;51.010;6.812;2022-11-25T16:33:14;433.23;;;410.70;;
17197;SDS011;8715;51.010;6.812;2022-11-25T16:35:39;399.23;;;380.85;;
17197;SDS011;8715;51.010;6.812;2022-11-25T16:38:04;428.52;;;408.70;;
17197;SDS011;8715;51.010;6.812;2022-11-25T16:40:30;429.63;;;408.77;;
17197;SDS011;8715;51.010;6.812;2022-11-25T16:42:55;424.45;;;404.63;;
17197;SDS011;8715;51.010;6.812;2022-11-25T16:45:22;424.38;;;404.45;;
17197;SDS011;8715;51.010;6.812;2022-11-25T16:47:48;420.20;;;400.40;;
17197;SDS011;8715;51.010;6.812;2022-11-25T16:50:14;422.55;;;401.60;;